sensor_id;sensor_type;location;lat;lon;timestamp;pressure;altitude;pressure_sealevel;temperature;humidity
61870;BME280;47810;42.264;23.826;2023-01-29T00:01:05;93822.38;;;-0.01;80.23
61870;BME280;47810;42.264;23.826;2023-01-29T00:03:31;93820.69;;;-0.02;80.67
61870;BME280;47810;42.264;23.826;2023-01-29T00:05:57;93815.03;;;0.16;79.79
61870;BME280;47810;42.264;23.826;2023-01-29T00:08:22;93818.94;;;-0.02;80.53
61870;BME280;47810;42.264;23.826;2023-01-29T00:10:48;93827.38;;;-0.28;81.62
61870;BME280;47810;42.264;23.826;2023-01-29T00:13:13;93828.22;;;-0.26;81.66
61870;BME280;47810;42.264;23.826;2023-01-29T00:15:39;93826.78;;;-0.39;82.04
61870;BME280;47810;42.264;23.826;2023-01-29T00:18:04;93827.53;;;-0.34;82.36
61870;BME280;47810;42.264;23.826;2023-01-29T00:20:30;93826.97;;;-0.11;80.16
61870;BME280;47810;42.264;23.826;2023-01-29T00:22:55;93837.09;;;-0.36;81.10
61870;BME280;47810;42.264;23.826;2023-01-29T00:25:21;93840.56;;;-0.37;82.02
61870;BME280;47810;42.264;23.826;2023-01-29T00:27:47;93834.88;;;-0.15;81.30
61870;BME280;47810;42.264;23.826;2023-01-29T00:30:13;93836.28;;;-0.38;82.10
61870;BME280;47810;42.264;23.826;2023-01-29T00:32:40;93840.66;;;-0.40;82.07
61870;BME280;47810;42.264;23.826;2023-01-29T00:35:06;93844.69;;;-0.65;83.67
61870;BME280;47810;42.264;23.826;2023-01-29T00:37:32;93846.19;;;-0.55;83.40
61870;BME280;47810;42.264;23.826;2023-01-29T00:39:57;93836.09;;;-0.67;82.79
61870;BME280;47810;42.264;23.826;2023-01-29T00:42:23;93841.22;;;-0.64;83.34
61870;BME280;47810;42.264;23.826;2023-01-29T00:45:08;93839.09;;;-0.47;82.92
61870;BME280;47810;42.264;23.826;2023-01-29T00:47:34;93849.25;;;-0.38;82.86
61870;BME280;47810;42.264;23.826;2023-01-29T00:50:00;93840.50;;;-0.34;82.81
61870;BME280;47810;42.264;23.826;2023-01-29T00:52:25;93843.31;;;-0.43;82.85
61870;BME280;47810;42.264;23.826;2023-01-29T00:54:52;93843.84;;;-0.29;82.34
61870;BME280;47810;42.264;23.826;2023-01-29T00:57:17;93843.28;;;-0.41;82.97
61870;BME280;47810;42.264;23.826;2023-01-29T00:59:43;93848.41;;;-0.38;83.13
61870;BME280;47810;42.264;23.826;2023-01-29T01:02:09;93836.28;;;-0.02;81.01
61870;BME280;47810;42.264;23.826;2023-01-29T01:04:53;93845.56;;;-0.28;81.42
61870;BME280;47810;42.264;23.826;2023-01-29T01:07:19;93846.31;;;-0.61;81.80
61870;BME280;47810;42.264;23.826;2023-01-29T01:09:44;93849.75;;;-0.59;81.97
61870;BME280;47810;42.264;23.826;2023-01-29T01:12:28;93854.34;;;-0.71;81.92
61870;BME280;47810;42.264;23.826;2023-01-29T01:14:54;93853.50;;;-0.73;81.46
61870;BME280;47810;42.264;23.826;2023-01-29T01:17:19;93853.72;;;-0.82;82.20
61870;BME280;47810;42.264;23.826;2023-01-29T01:19:45;93858.44;;;-0.60;81.90
61870;BME280;47810;42.264;23.826;2023-01-29T01:22:10;93860.59;;;-0.81;81.90
61870;BME280;47810;42.264;23.826;2023-01-29T01:24:36;93849.75;;;-0.59;81.76
61870;BME280;47810;42.264;23.826;2023-01-29T01:27:02;93859.09;;;-0.52;81.37
61870;BME280;47810;42.264;23.826;2023-01-29T01:29:28;93854.94;;;-0.59;81.87
61870;BME280;47810;42.264;23.826;2023-01-29T01:31:53;93858.69;;;-0.73;81.83
61870;BME280;47810;42.264;23.826;2023-01-29T01:34:19;93856.94;;;-0.71;81.59
61870;BME280;47810;42.264;23.826;2023-01-29T01:36:46;93853.69;;;-0.80;82.12
61870;BME280;47810;42.264;23.826;2023-01-29T01:39:12;93859.03;;;-0.88;82.60
61870;BME280;47810;42.264;23.826;2023-01-29T01:41:37;93855.88;;;-1.02;82.87
61870;BME280;47810;42.264;23.826;2023-01-29T01:44:03;93853.06;;;-0.91;82.64
61870;BME280;47810;42.264;23.826;2023-01-29T01:46:30;93846.75;;;-0.80;82.49
61870;BME280;47810;42.264;23.826;2023-01-29T01:49:17;93848.78;;;-0.94;82.89
61870;BME280;47810;42.264;23.826;2023-01-29T01:51:43;93853.25;;;-1.01;83.11
61870;BME280;47810;42.264;23.826;2023-01-29T01:54:18;93847.63;;;-0.81;82.37
61870;BME280;47810;42.264;23.826;2023-01-29T01:56:46;93858.19;;;-0.88;82.84
61870;BME280;47810;42.264;23.826;2023-01-29T01:59:15;93857.75;;;-1.09;83.48
61870;BME280;47810;42.264;23.826;2023-01-29T02:01:42;93863.38;;;-0.90;83.51
61870;BME280;47810;42.264;23.826;2023-01-29T02:04:12;93862.97;;;-1.10;83.68
61870;BME280;47810;42.264;23.826;2023-01-29T02:06:57;93859.09;;;-0.91;83.86
61870;BME280;47810;42.264;23.826;2023-01-29T02:09:45;93864.47;;;-1.00;83.81
61870;BME280;47810;42.264;23.826;2023-01-29T02:12:14;93866.19;;;-0.99;83.87
61870;BME280;47810;42.264;23.826;2023-01-29T02:14:40;93855.22;;;-1.12;84.21
61870;BME280;47810;42.264;23.826;2023-01-29T02:17:07;93866.88;;;-0.91;84.07
61870;BME280;47810;42.264;23.826;2023-01-29T02:30:23;93877.16;;;-0.88;84.07
61870;BME280;47810;42.264;23.826;2023-01-29T02:35:51;93880.41;;;-0.78;83.07
61870;BME280;47810;42.264;23.826;2023-01-29T02:43:43;93884.69;;;-0.76;82.51
61870;BME280;47810;42.264;23.826;2023-01-29T02:48:51;93888.38;;;-0.86;83.06
61870;BME280;47810;42.264;23.826;2023-01-29T02:53:57;93887.44;;;-0.83;82.81
61870;BME280;47810;42.264;23.826;2023-01-29T02:56:26;93888.88;;;-0.70;82.42
61870;BME280;47810;42.264;23.826;2023-01-29T02:59:06;93890.31;;;-0.97;83.00
61870;BME280;47810;42.264;23.826;2023-01-29T03:01:38;93891.69;;;-0.81;82.72
61870;BME280;47810;42.264;23.826;2023-01-29T03:04:07;93887.56;;;-0.89;83.09
61870;BME280;47810;42.264;23.826;2023-01-29T03:06:36;93886.97;;;-1.02;83.64
61870;BME280;47810;42.264;23.826;2023-01-29T03:09:03;93893.59;;;-0.89;83.40
61870;BME280;47810;42.264;23.826;2023-01-29T03:11:34;93893.06;;;-1.05;83.92
61870;BME280;47810;42.264;23.826;2023-01-29T03:14:20;93886.63;;;-0.87;84.01
61870;BME280;47810;42.264;23.826;2023-01-29T03:21:53;93891.81;;;-0.87;83.94
61870;BME280;47810;42.264;23.826;2023-01-29T03:27:13;93901.13;;;-0.77;84.09
61870;BME280;47810;42.264;23.826;2023-01-29T03:29:59;93902.66;;;-0.68;83.97
61870;BME280;47810;42.264;23.826;2023-01-29T03:32:44;93909.66;;;-0.72;83.72
61870;BME280;47810;42.264;23.826;2023-01-29T03:35:11;93903.75;;;-0.78;83.94
61870;BME280;47810;42.264;23.826;2023-01-29T03:37:45;93905.28;;;-0.69;83.79
61870;BME280;47810;42.264;23.826;2023-01-29T03:40:12;93910.41;;;-0.66;83.54
61870;BME280;47810;42.264;23.826;2023-01-29T03:42:43;93912.16;;;-0.68;83.61
61870;BME280;47810;42.264;23.826;2023-01-29T03:45:14;93902.25;;;-0.90;84.07
61870;BME280;47810;42.264;23.826;2023-01-29T03:55:21;93909.75;;;-1.20;85.09
61870;BME280;47810;42.264;23.826;2023-01-29T04:00:21;93912.09;;;-1.06;84.39
61870;BME280;47810;42.264;23.826;2023-01-29T04:05:15;93910.38;;;-1.07;84.49
61870;BME280;47810;42.264;23.826;2023-01-29T04:07:42;93913.81;;;-1.06;84.56
61870;BME280;47810;42.264;23.826;2023-01-29T04:10:14;93916.69;;;-1.19;84.74
61870;BME280;47810;42.264;23.826;2023-01-29T04:12:51;93919.88;;;-1.07;84.75
61870;BME280;47810;42.264;23.826;2023-01-29T04:15:19;93919.94;;;-1.10;85.00
61870;BME280;47810;42.264;23.826;2023-01-29T04:17:48;93920.59;;;-0.99;84.64
61870;BME280;47810;42.264;23.826;2023-01-29T04:20:15;93920.56;;;-0.98;84.60
61870;BME280;47810;42.264;23.826;2023-01-29T04:22:45;93922.41;;;-1.03;83.92
61870;BME280;47810;42.264;23.826;2023-01-29T04:25:11;93923.31;;;-1.05;84.34
61870;BME280;47810;42.264;23.826;2023-01-29T04:27:49;93929.28;;;-1.02;83.85
61870;BME280;47810;42.264;23.826;2023-01-29T04:38:21;93917.41;;;-1.12;82.53
61870;BME280;47810;42.264;23.826;2023-01-29T04:40:58;93919.84;;;-1.04;82.37
61870;BME280;47810;42.264;23.826;2023-01-29T04:43:29;93926.78;;;-1.06;83.15
61870;BME280;47810;42.264;23.826;2023-01-29T04:48:31;93921.72;;;-1.12;82.87
61870;BME280;47810;42.264;23.826;2023-01-29T04:56:02;93922.84;;;-0.84;82.62
61870;BME280;47810;42.264;23.826;2023-01-29T04:58:35;93924.84;;;-0.95;82.96
61870;BME280;47810;42.264;23.826;2023-01-29T05:01:03;93929.41;;;-1.08;82.94
61870;BME280;47810;42.264;23.826;2023-01-29T05:03:30;93933.63;;;-1.02;83.47
61870;BME280;47810;42.264;23.826;2023-01-29T05:05:58;93927.31;;;-0.89;83.11
61870;BME280;47810;42.264;23.826;2023-01-29T05:08:24;93935.38;;;-1.04;83.54
61870;BME280;47810;42.264;23.826;2023-01-29T05:10:52;93932.38;;;-0.84;83.13
61870;BME280;47810;42.264;23.826;2023-01-29T05:13:19;93945.13;;;-0.74;82.30
61870;BME280;47810;42.264;23.826;2023-01-29T05:18:23;93950.91;;;-1.03;82.46
61870;BME280;47810;42.264;23.826;2023-01-29T05:20:48;93949.34;;;-1.11;83.15
61870;BME280;47810;42.264;23.826;2023-01-29T05:23:15;93941.22;;;-0.93;82.34
61870;BME280;47810;42.264;23.826;2023-01-29T05:25:41;93949.03;;;-0.96;82.73
61870;BME280;47810;42.264;23.826;2023-01-29T05:28:07;93955.03;;;-0.92;82.91
61870;BME280;47810;42.264;23.826;2023-01-29T05:30:41;93951.75;;;-1.02;83.03
61870;BME280;47810;42.264;23.826;2023-01-29T05:33:12;93956.09;;;-1.03;83.30
61870;BME280;47810;42.264;23.826;2023-01-29T05:35:38;93957.75;;;-1.00;83.01
61870;BME280;47810;42.264;23.826;2023-01-29T05:38:04;93961.34;;;-1.07;83.38
61870;BME280;47810;42.264;23.826;2023-01-29T05:40:29;93953.69;;;-1.12;83.71
61870;BME280;47810;42.264;23.826;2023-01-29T05:42:55;93959.66;;;-1.08;83.63
61870;BME280;47810;42.264;23.826;2023-01-29T05:45:20;93962.00;;;-0.98;83.60
61870;BME280;47810;42.264;23.826;2023-01-29T05:47:46;93967.19;;;-0.98;83.65
61870;BME280;47810;42.264;23.826;2023-01-29T05:50:12;93965.22;;;-0.85;83.26
61870;BME280;47810;42.264;23.826;2023-01-29T05:52:37;93967.84;;;-0.86;83.36
61870;BME280;47810;42.264;23.826;2023-01-29T05:55:03;93975.41;;;-0.76;83.33
61870;BME280;47810;42.264;23.826;2023-01-29T05:57:29;93976.63;;;-0.52;82.17
61870;BME280;47810;42.264;23.826;2023-01-29T05:59:54;93981.84;;;-0.53;82.39
61870;BME280;47810;42.264;23.826;2023-01-29T06:02:20;93975.56;;;-0.41;82.10
61870;BME280;47810;42.264;23.826;2023-01-29T06:04:45;93979.84;;;-0.40;82.35
61870;BME280;47810;42.264;23.826;2023-01-29T06:07:11;93986.88;;;-0.45;82.35
61870;BME280;47810;42.264;23.826;2023-01-29T06:09:36;93990.25;;;-0.42;81.92
61870;BME280;47810;42.264;23.826;2023-01-29T06:12:02;93992.66;;;-0.33;82.23
61870;BME280;47810;42.264;23.826;2023-01-29T06:14:39;94005.81;;;-0.42;81.73
61870;BME280;47810;42.264;23.826;2023-01-29T06:17:38;93999.81;;;-0.44;81.85
61870;BME280;47810;42.264;23.826;2023-01-29T06:20:03;94003.75;;;-0.26;81.33
61870;BME280;47810;42.264;23.826;2023-01-29T06:22:31;94011.94;;;-0.44;81.34
61870;BME280;47810;42.264;23.826;2023-01-29T06:24:57;94011.28;;;-0.56;82.17
61870;BME280;47810;42.264;23.826;2023-01-29T06:27:23;94020.88;;;-0.59;82.86
61870;BME280;47810;42.264;23.826;2023-01-29T06:29:48;94020.94;;;-0.62;82.87
61870;BME280;47810;42.264;23.826;2023-01-29T06:32:14;94023.59;;;-0.65;83.06
61870;BME280;47810;42.264;23.826;2023-01-29T06:34:39;94026.78;;;-0.51;83.20
61870;BME280;47810;42.264;23.826;2023-01-29T06:37:05;94030.41;;;-0.61;83.50
61870;BME280;47810;42.264;23.826;2023-01-29T06:39:32;94027.63;;;-0.52;83.15
61870;BME280;47810;42.264;23.826;2023-01-29T06:41:57;94026.78;;;-0.51;83.48
61870;BME280;47810;42.264;23.826;2023-01-29T06:44:23;94032.75;;;-0.49;83.62
61870;BME280;47810;42.264;23.826;2023-01-29T06:46:49;94027.63;;;-0.52;83.59
61870;BME280;47810;42.264;23.826;2023-01-29T06:49:14;94027.06;;;-0.25;83.25
61870;BME280;47810;42.264;23.826;2023-01-29T06:51:41;94026.94;;;-0.18;82.84
61870;BME280;47810;42.264;23.826;2023-01-29T06:54:07;94030.44;;;-0.21;83.06
61870;BME280;47810;42.264;23.826;2023-01-29T06:56:33;94035.41;;;-0.10;83.09
61870;BME280;47810;42.264;23.826;2023-01-29T06:58:59;94038.75;;;-0.05;82.79
61870;BME280;47810;42.264;23.826;2023-01-29T07:01:24;94037.88;;;-0.04;82.74
61870;BME280;47810;42.264;23.826;2023-01-29T07:03:50;94038.75;;;-0.05;82.83
61870;BME280;47810;42.264;23.826;2023-01-29T07:06:16;94037.31;;;-0.18;82.97
61870;BME280;47810;42.264;23.826;2023-01-29T07:08:42;94044.16;;;-0.14;82.59
61870;BME280;47810;42.264;23.826;2023-01-29T07:11:07;94039.19;;;-0.68;84.11
61870;BME280;47810;42.264;23.826;2023-01-29T07:13:33;94038.13;;;-0.58;84.26
61870;BME280;47810;42.264;23.826;2023-01-29T07:15:59;94043.91;;;-0.44;83.89
61870;BME280;47810;42.264;23.826;2023-01-29T07:18:28;94037.75;;;-0.40;84.12
61870;BME280;47810;42.264;23.826;2023-01-29T07:20:54;94044.94;;;-0.51;83.82
61870;BME280;47810;42.264;23.826;2023-01-29T07:23:19;94041.81;;;-0.27;83.52
61870;BME280;47810;42.264;23.826;2023-01-29T07:25:45;94043.25;;;-0.13;83.69
61870;BME280;47810;42.264;23.826;2023-01-29T07:28:11;94041.28;;;-0.02;82.69
61870;BME280;47810;42.264;23.826;2023-01-29T07:30:37;94044.00;;;-0.08;82.80
61870;BME280;47810;42.264;23.826;2023-01-29T07:35:28;94051.13;;;0.22;82.71
61870;BME280;47810;42.264;23.826;2023-01-29T07:37:53;94053.34;;;0.38;81.81
61870;BME280;47810;42.264;23.826;2023-01-29T07:40:19;94061.97;;;0.40;81.41
61870;BME280;47810;42.264;23.826;2023-01-29T07:42:45;94049.50;;;0.54;81.30
61870;BME280;47810;42.264;23.826;2023-01-29T07:45:11;94058.88;;;0.61;80.85
61870;BME280;47810;42.264;23.826;2023-01-29T07:47:36;94059.25;;;0.82;80.40
61870;BME280;47810;42.264;23.826;2023-01-29T07:50:02;94065.41;;;0.78;80.07
61870;BME280;47810;42.264;23.826;2023-01-29T07:52:29;94069.81;;;1.08;79.46
61870;BME280;47810;42.264;23.826;2023-01-29T07:54:54;94070.72;;;1.07;79.34
61870;BME280;47810;42.264;23.826;2023-01-29T07:57:20;94072.16;;;1.19;79.15
61870;BME280;47810;42.264;23.826;2023-01-29T07:59:46;94086.88;;;1.20;79.00
61870;BME280;47810;42.264;23.826;2023-01-29T08:02:12;94089.09;;;1.34;78.41
61870;BME280;47810;42.264;23.826;2023-01-29T08:04:37;94080.00;;;1.50;77.62
61870;BME280;47810;42.264;23.826;2023-01-29T08:07:03;94078.53;;;1.40;77.90
61870;BME280;47810;42.264;23.826;2023-01-29T08:09:29;94083.41;;;1.52;76.86
61870;BME280;47810;42.264;23.826;2023-01-29T08:11:55;94090.06;;;0.97;78.22
61870;BME280;47810;42.264;23.826;2023-01-29T08:14:21;94092.06;;;1.20;78.06
61870;BME280;47810;42.264;23.826;2023-01-29T08:16:47;94089.41;;;1.22;78.59
61870;BME280;47810;42.264;23.826;2023-01-29T08:19:12;94099.47;;;1.35;78.94
61870;BME280;47810;42.264;23.826;2023-01-29T08:21:38;94095.97;;;1.04;78.87
61870;BME280;47810;42.264;23.826;2023-01-29T08:24:03;94098.19;;;1.17;78.89
61870;BME280;47810;42.264;23.826;2023-01-29T08:26:29;94100.09;;;1.11;78.41
61870;BME280;47810;42.264;23.826;2023-01-29T08:28:55;94099.34;;;0.72;78.70
61870;BME280;47810;42.264;23.826;2023-01-29T08:31:21;94100.22;;;0.70;79.79
61870;BME280;47810;42.264;23.826;2023-01-29T08:33:47;94099.69;;;0.56;80.80
61870;BME280;47810;42.264;23.826;2023-01-29T08:36:12;94109.72;;;0.72;81.11
61870;BME280;47810;42.264;23.826;2023-01-29T08:38:38;94096.84;;;0.67;81.47
61870;BME280;47810;42.264;23.826;2023-01-29T08:41:04;94104.19;;;0.87;80.81
61870;BME280;47810;42.264;23.826;2023-01-29T08:43:29;94109.97;;;0.61;81.67
61870;BME280;47810;42.264;23.826;2023-01-29T08:45:55;94108.56;;;0.85;81.12
61870;BME280;47810;42.264;23.826;2023-01-29T08:48:21;94104.19;;;0.87;81.11
61870;BME280;47810;42.264;23.826;2023-01-29T08:50:46;94112.47;;;1.01;80.99
61870;BME280;47810;42.264;23.826;2023-01-29T08:53:12;94115.72;;;0.75;81.49
61870;BME280;47810;42.264;23.826;2023-01-29T08:55:38;94114.00;;;1.10;81.11
61870;BME280;47810;42.264;23.826;2023-01-29T08:58:04;94120.63;;;1.22;80.07
61870;BME280;47810;42.264;23.826;2023-01-29T09:00:30;94117.59;;;1.04;80.23
61870;BME280;47810;42.264;23.826;2023-01-29T09:02:56;94120.69;;;1.19;80.07
61870;BME280;47810;42.264;23.826;2023-01-29T09:05:24;94125.97;;;1.50;79.71
61870;BME280;47810;42.264;23.826;2023-01-29T09:07:49;94128.56;;;1.50;79.43
61870;BME280;47810;42.264;23.826;2023-01-29T09:10:15;94112.91;;;1.84;78.54
61870;BME280;47810;42.264;23.826;2023-01-29T09:12:41;94115.59;;;1.81;77.37
61870;BME280;47810;42.264;23.826;2023-01-29T09:15:06;94123.59;;;1.73;78.01
61870;BME280;47810;42.264;23.826;2023-01-29T09:17:32;94119.13;;;1.80;77.58
61870;BME280;47810;42.264;23.826;2023-01-29T09:19:57;94115.69;;;1.78;77.56
61870;BME280;47810;42.264;23.826;2023-01-29T09:22:23;94113.44;;;1.95;77.53
61870;BME280;47810;42.264;23.826;2023-01-29T09:24:48;94112.50;;;2.29;75.71
61870;BME280;47810;42.264;23.826;2023-01-29T09:27:14;94115.97;;;2.58;74.46
61870;BME280;47810;42.264;23.826;2023-01-29T09:29:39;94108.56;;;2.72;73.27
61870;BME280;47810;42.264;23.826;2023-01-29T09:32:05;94106.16;;;2.66;72.66
61870;BME280;47810;42.264;23.826;2023-01-29T09:34:31;94110.97;;;2.51;72.94
61870;BME280;47810;42.264;23.826;2023-01-29T09:36:57;94105.28;;;2.37;74.68
61870;BME280;47810;42.264;23.826;2023-01-29T09:39:22;94102.56;;;2.70;73.74
61870;BME280;47810;42.264;23.826;2023-01-29T09:46:59;94092.78;;;1.89;76.28
61870;BME280;47810;42.264;23.826;2023-01-29T09:49:29;94090.91;;;2.25;75.96
61870;BME280;47810;42.264;23.826;2023-01-29T09:52:09;94085.81;;;2.21;75.05
61870;BME280;47810;42.264;23.826;2023-01-29T09:54:56;94089.56;;;2.40;75.06
61870;BME280;47810;42.264;23.826;2023-01-29T09:57:27;94079.31;;;2.64;73.91
61870;BME280;47810;42.264;23.826;2023-01-29T09:59:55;94080.88;;;2.41;73.11
61870;BME280;47810;42.264;23.826;2023-01-29T10:10:14;94069.09;;;2.84;72.16
61870;BME280;47810;42.264;23.826;2023-01-29T10:15:24;94065.53;;;3.13;71.50
61870;BME280;47810;42.264;23.826;2023-01-29T10:17:59;94066.88;;;2.98;70.74
61870;BME280;47810;42.264;23.826;2023-01-29T10:20:35;94056.56;;;2.95;71.06
61870;BME280;47810;42.264;23.826;2023-01-29T10:25:31;94049.03;;;3.63;69.08
61870;BME280;47810;42.264;23.826;2023-01-29T10:27:58;94050.88;;;3.09;68.57
61870;BME280;47810;42.264;23.826;2023-01-29T10:30:27;94044.03;;;3.32;69.78
61870;BME280;47810;42.264;23.826;2023-01-29T10:32:54;94042.22;;;3.09;70.69
61870;BME280;47810;42.264;23.826;2023-01-29T10:35:22;94055.72;;;3.20;70.51
61870;BME280;47810;42.264;23.826;2023-01-29T10:37:52;94041.22;;;2.86;71.69
61870;BME280;47810;42.264;23.826;2023-01-29T10:40:22;94044.50;;;2.91;71.70
61870;BME280;47810;42.264;23.826;2023-01-29T10:45:53;94041.91;;;2.65;74.31
61870;BME280;47810;42.264;23.826;2023-01-29T10:51:00;94032.31;;;3.18;73.09
61870;BME280;47810;42.264;23.826;2023-01-29T10:53:56;94039.09;;;2.97;72.47
61870;BME280;47810;42.264;23.826;2023-01-29T10:59:03;94032.69;;;2.81;73.06
61870;BME280;47810;42.264;23.826;2023-01-29T11:01:30;94029.81;;;2.89;72.56
61870;BME280;47810;42.264;23.826;2023-01-29T11:03:56;94027.63;;;2.76;72.25
61870;BME280;47810;42.264;23.826;2023-01-29T11:11:30;94021.75;;;2.70;72.30
61870;BME280;47810;42.264;23.826;2023-01-29T11:14:01;94016.00;;;2.32;72.46
61870;BME280;47810;42.264;23.826;2023-01-29T11:16:31;94014.25;;;2.61;72.47
61870;BME280;47810;42.264;23.826;2023-01-29T11:19:04;94016.94;;;2.58;72.23
61870;BME280;47810;42.264;23.826;2023-01-29T11:21:30;94014.34;;;2.58;72.79
61870;BME280;47810;42.264;23.826;2023-01-29T11:24:05;94009.31;;;2.25;72.34
61870;BME280;47810;42.264;23.826;2023-01-29T11:26:32;94011.34;;;2.70;72.52
61870;BME280;47810;42.264;23.826;2023-01-29T11:28:59;94005.50;;;2.62;73.18
61870;BME280;47810;42.264;23.826;2023-01-29T11:31:25;94003.72;;;2.64;73.10
61870;BME280;47810;42.264;23.826;2023-01-29T11:33:52;93998.06;;;2.76;72.32
61870;BME280;47810;42.264;23.826;2023-01-29T11:36:26;94005.44;;;2.37;73.22
61870;BME280;47810;42.264;23.826;2023-01-29T11:39:11;94004.56;;;2.09;72.77
61870;BME280;47810;42.264;23.826;2023-01-29T11:41:46;94003.03;;;2.30;73.65
61870;BME280;47810;42.264;23.826;2023-01-29T11:44:25;93992.84;;;2.23;73.29
61870;BME280;47810;42.264;23.826;2023-01-29T11:46:52;93994.63;;;2.21;74.25
61870;BME280;47810;42.264;23.826;2023-01-29T11:49:20;93997.09;;;1.97;74.08
61870;BME280;47810;42.264;23.826;2023-01-29T11:51:51;93988.69;;;2.17;73.35
61870;BME280;47810;42.264;23.826;2023-01-29T11:54:17;93993.59;;;1.98;72.95
61870;BME280;47810;42.264;23.826;2023-01-29T11:56:44;93999.06;;;1.89;74.25
61870;BME280;47810;42.264;23.826;2023-01-29T12:01:49;93996.75;;;1.50;74.69
61870;BME280;47810;42.264;23.826;2023-01-29T12:04:19;93999.50;;;1.44;74.97
61870;BME280;47810;42.264;23.826;2023-01-29T12:06:46;93993.34;;;1.48;75.65
61870;BME280;47810;42.264;23.826;2023-01-29T12:09:17;93993.88;;;1.28;76.80
61870;BME280;47810;42.264;23.826;2023-01-29T12:11:43;93984.13;;;1.36;75.97
61870;BME280;47810;42.264;23.826;2023-01-29T12:14:31;93986.34;;;1.50;76.69
61870;BME280;47810;42.264;23.826;2023-01-29T12:17:05;93979.59;;;1.43;76.27
61870;BME280;47810;42.264;23.826;2023-01-29T12:19:37;93982.47;;;1.63;75.86
61870;BME280;47810;42.264;23.826;2023-01-29T12:29:58;93974.94;;;1.84;75.44
61870;BME280;47810;42.264;23.826;2023-01-29T12:40:00;93978.72;;;1.74;73.91
61870;BME280;47810;42.264;23.826;2023-01-29T12:42:26;93973.44;;;1.77;74.58
61870;BME280;47810;42.264;23.826;2023-01-29T12:45:11;93970.09;;;1.72;74.92
61870;BME280;47810;42.264;23.826;2023-01-29T12:47:41;93971.09;;;1.68;74.84
61870;BME280;47810;42.264;23.826;2023-01-29T12:50:26;93972.28;;;1.85;74.12
61870;BME280;47810;42.264;23.826;2023-01-29T12:52:55;93976.72;;;1.83;74.25
61870;BME280;47810;42.264;23.826;2023-01-29T12:55:36;93970.78;;;2.06;74.43
61870;BME280;47810;42.264;23.826;2023-01-29T12:58:20;93969.50;;;1.92;73.72
61870;BME280;47810;42.264;23.826;2023-01-29T13:00:48;93966.38;;;2.08;73.89
61870;BME280;47810;42.264;23.826;2023-01-29T13:10:48;93978.56;;;1.80;73.83
61870;BME280;47810;42.264;23.826;2023-01-29T13:13:20;93978.44;;;1.83;73.65
61870;BME280;47810;42.264;23.826;2023-01-29T13:15:49;93983.38;;;1.92;72.60
61870;BME280;47810;42.264;23.826;2023-01-29T13:21:01;93986.16;;;1.86;72.93
61870;BME280;47810;42.264;23.826;2023-01-29T13:23:37;93989.16;;;1.72;71.87
61870;BME280;47810;42.264;23.826;2023-01-29T13:26:05;93994.03;;;1.83;72.32
61870;BME280;47810;42.264;23.826;2023-01-29T13:33:52;93980.28;;;1.79;73.76
61870;BME280;47810;42.264;23.826;2023-01-29T13:36:21;93982.66;;;1.87;74.11
61870;BME280;47810;42.264;23.826;2023-01-29T13:39:08;93990.47;;;1.87;73.33
61870;BME280;47810;42.264;23.826;2023-01-29T13:41:41;93983.84;;;1.77;74.23
61870;BME280;47810;42.264;23.826;2023-01-29T13:44:16;93986.34;;;1.50;74.51
61870;BME280;47810;42.264;23.826;2023-01-29T13:46:46;93987.97;;;1.54;74.21
61870;BME280;47810;42.264;23.826;2023-01-29T13:51:57;93987.88;;;1.57;74.83
61870;BME280;47810;42.264;23.826;2023-01-29T13:54:24;93993.94;;;1.27;74.77
61870;BME280;47810;42.264;23.826;2023-01-29T13:59:23;94002.66;;;1.26;74.88
61870;BME280;47810;42.264;23.826;2023-01-29T14:06:46;93997.03;;;1.08;75.77
61870;BME280;47810;42.264;23.826;2023-01-29T14:09:29;94004.59;;;1.17;76.06
61870;BME280;47810;42.264;23.826;2023-01-29T14:11:55;93997.84;;;1.10;76.77
61870;BME280;47810;42.264;23.826;2023-01-29T14:17:05;93997.78;;;1.13;77.09
61870;BME280;47810;42.264;23.826;2023-01-29T14:19:31;94004.59;;;1.17;76.85
61870;BME280;47810;42.264;23.826;2023-01-29T14:21:57;94004.75;;;1.11;77.23
61870;BME280;47810;42.264;23.826;2023-01-29T14:24:23;94011.16;;;1.00;77.64
61870;BME280;47810;42.264;23.826;2023-01-29T14:26:55;94010.38;;;1.29;77.42
61870;BME280;47810;42.264;23.826;2023-01-29T14:29:24;94020.09;;;1.21;78.00
61870;BME280;47810;42.264;23.826;2023-01-29T14:31:56;94023.19;;;1.02;78.79
61870;BME280;47810;42.264;23.826;2023-01-29T14:36:48;94022.25;;;0.72;79.54
61870;BME280;47810;42.264;23.826;2023-01-29T14:39:30;94025.88;;;0.65;80.23
61870;BME280;47810;42.264;23.826;2023-01-29T14:41:57;94032.00;;;0.62;80.50
61870;BME280;47810;42.264;23.826;2023-01-29T14:49:51;94038.59;;;0.77;80.94
61870;BME280;47810;42.264;23.826;2023-01-29T14:52:18;94037.28;;;0.59;81.11
61870;BME280;47810;42.264;23.826;2023-01-29T14:54:45;94045.91;;;0.61;80.92
61870;BME280;47810;42.264;23.826;2023-01-29T14:57:11;94047.94;;;0.47;80.80
61870;BME280;47810;42.264;23.826;2023-01-29T14:59:58;94047.94;;;0.47;81.03
61870;BME280;47810;42.264;23.826;2023-01-29T15:02:25;94048.03;;;0.44;81.22
61870;BME280;47810;42.264;23.826;2023-01-29T15:04:57;94046.53;;;0.34;81.20
61870;BME280;47810;42.264;23.826;2023-01-29T15:15:14;94053.63;;;0.27;82.48
61870;BME280;47810;42.264;23.826;2023-01-29T15:22:49;94055.22;;;0.33;81.53
61870;BME280;47810;42.264;23.826;2023-01-29T15:25:15;94061.34;;;0.29;81.70
61870;BME280;47810;42.264;23.826;2023-01-29T15:27:43;94057.72;;;-0.02;80.10
61870;BME280;47810;42.264;23.826;2023-01-29T15:30:13;94062.94;;;-0.03;80.20
61870;BME280;47810;42.264;23.826;2023-01-29T15:32:39;94058.94;;;-0.18;80.11
61870;BME280;47810;42.264;23.826;2023-01-29T15:35:09;94059.72;;;-0.14;80.18
61870;BME280;47810;42.264;23.826;2023-01-29T15:37:36;94057.41;;;-0.28;80.11
61870;BME280;47810;42.264;23.826;2023-01-29T15:40:03;94062.31;;;-0.56;80.39
61870;BME280;47810;42.264;23.826;2023-01-29T15:42:41;94066.59;;;-0.55;80.82
61870;BME280;47810;42.264;23.826;2023-01-29T15:45:28;94074.06;;;-0.40;80.23
61870;BME280;47810;42.264;23.826;2023-01-29T15:47:57;94069.06;;;-0.49;80.45